Time;durP1;ratioP1;P1;durP2;ratioP2;P2;SDS_P1;SDS_P2;PMS_P1;PMS_P2;Temp;Humidity;BMP_temperature;BMP_pressure;BME280_temperature;BME280_humidity;BME280_pressure;Samples;Min_cycle;Max_cycle;Signal;HPM_P1;HPM_P2
2023/06/12 00:01:14;;;;;;;;;;;;;;;28.10;30.15;98464.72;5048076;28;19924;-93
2023/06/12 00:03:42;;;;;;;;;;;;;;;27.58;30.57;98465.13;5065849;28;19921;-92
2023/06/12 00:06:16;;;;;;;;;;;;;;;27.18;30.89;98463.88;5065600;28;20410;-93
2023/06/12 00:08:43;;;;;;;;;;;;;;;27.40;31.25;98464.84;5070785;28;20372;-91
2023/06/12 00:11:12;;;;;;;;;;;;;;;27.49;30.91;98469.84;5055768;28;19935;-92
2023/06/12 00:13:39;;;;;;;;;;;;;;;27.36;31.26;98466.97;5061786;28;19920;-92
2023/06/12 00:16:05;;;;;;;;;;;;;;;27.21;31.86;98462.97;5058066;28;19969;-92
2023/06/12 00:18:31;;;;;;;;;;;;;;;27.03;31.99;98463.47;5053643;28;20002;-93
2023/06/12 00:20:57;;;;;;;;;;;;;;;27.39;31.10;98457.66;5069376;28;20349;-92
2023/06/12 00:23:23;;;;;;;;;;;;;;;27.62;30.91;98459.38;5069029;28;19944;-92
2023/06/12 00:25:49;;;;;;;;;;;;;;;27.80;30.76;98457.59;5072711;28;20376;-94
2023/06/12 00:28:15;;;;;;;;;;;;;;;27.88;30.23;98467.44;5067454;28;19921;-92
2023/06/12 00:30:41;;;;;;;;;;;;;;;27.80;30.19;98456.78;5075422;28;19928;-92
2023/06/12 00:33:07;;;;;;;;;;;;;;;28.29;29.35;98452.41;5074071;28;20294;-92
2023/06/12 00:35:33;;;;;;;;;;;;;;;28.26;29.74;98458.19;5067656;28;19921;-93
2023/06/12 00:38:00;;;;;;;;;;;;;;;28.31;29.43;98457.63;5071208;28;19916;-93
2023/06/12 00:40:26;;;;;;;;;;;;;;;28.35;29.17;98452.63;5069860;28;20015;-93
2023/06/12 00:42:52;;;;;;;;;;;;;;;28.35;29.06;98456.25;5069398;28;19982;-93
2023/06/12 00:45:20;;;;;;;;;;;;;;;28.35;29.20;98456.25;5070088;28;20023;-93
2023/06/12 00:47:50;;;;;;;;;;;;;;;28.39;29.16;98453.28;5074237;28;19973;-93
2023/06/12 00:50:17;;;;;;;;;;;;;;;27.98;29.30;98457.81;5062759;28;19916;-92
2023/06/12 00:52:48;;;;;;;;;;;;;;;27.83;29.74;98453.06;5075511;28;20399;-92
2023/06/12 00:55:14;;;;;;;;;;;;;;;27.80;29.77;98460.41;5070182;28;19928;-93
2023/06/12 00:57:44;;;;;;;;;;;;;;;27.49;29.91;98450.91;5060959;28;20028;-93
2023/06/12 01:00:12;;;;;;;;;;;;;;;27.21;30.56;98458.09;5067129;28;19923;-93
2023/06/12 01:02:42;;;;;;;;;;;;;;;26.40;32.41;98445.41;5068234;28;19921;-94
2023/06/12 01:05:14;;;;;;;;;;;;;;;26.65;31.89;98451.22;5066517;28;20292;-93
2023/06/12 01:07:47;;;;;;;;;;;;;;;26.26;32.39;98452.19;5075097;28;19920;-93
2023/06/12 01:10:22;;;;;;;;;;;;;;;26.26;32.44;98449.38;5066223;28;19927;-92
2023/06/12 01:12:50;;;;;;;;;;;;;;;26.45;32.24;98451.31;5068442;28;19920;-92
2023/06/12 01:15:16;;;;;;;;;;;;;;;26.80;31.91;98446.81;5063137;28;20326;-94
2023/06/12 01:17:42;;;;;;;;;;;;;;;26.85;31.44;98451.91;5073469;28;19920;-94
2023/06/12 01:20:11;;;;;;;;;;;;;;;26.79;31.70;98450.88;5074743;28;19920;-93
2023/06/12 01:22:50;;;;;;;;;;;;;;;26.87;31.59;98451.44;5073041;28;20299;-94
2023/06/12 01:25:40;;;;;;;;;;;;;;;26.48;32.31;98453.25;5066886;28;19920;-93
2023/06/12 01:28:06;;;;;;;;;;;;;;;26.73;31.50;98456.22;5065175;28;19923;-94
2023/06/12 01:30:38;;;;;;;;;;;;;;;26.69;31.56;98451.91;5073798;28;20399;-92
2023/06/12 01:33:07;;;;;;;;;;;;;;;26.80;31.25;98457.28;5055813;28;19912;-93
2023/06/12 01:35:36;;;;;;;;;;;;;;;27.01;30.98;98457.50;5070181;28;19946;-93
2023/06/12 01:38:06;;;;;;;;;;;;;;;27.01;31.16;98463.13;5064680;28;19929;-92
2023/06/12 01:40:32;;;;;;;;;;;;;;;26.62;31.78;98457.72;5065861;28;20310;-92
2023/06/12 01:42:58;;;;;;;;;;;;;;;26.44;32.10;98455.34;5060800;28;20369;-92
2023/06/12 01:45:25;;;;;;;;;;;;;;;26.63;32.01;98462.91;5073185;28;19925;-92
2023/06/12 01:47:51;;;;;;;;;;;;;;;26.67;31.32;98455.19;5067991;28;19916;-92
2023/06/12 01:50:17;;;;;;;;;;;;;;;26.94;30.92;98460.50;5067268;28;20307;-92
2023/06/12 01:52:43;;;;;;;;;;;;;;;27.16;30.50;98463.53;5069783;28;19921;-92
2023/06/12 01:55:09;;;;;;;;;;;;;;;27.36;30.32;98461.31;5064140;28;19920;-91
2023/06/12 01:57:37;;;;;;;;;;;;;;;27.32;30.20;98466.28;5071965;28;20372;-92
2023/06/12 02:00:08;;;;;;;;;;;;;;;27.42;30.41;98465.22;5070138;28;19920;-93
2023/06/12 02:02:35;;;;;;;;;;;;;;;27.66;29.18;98462.88;5073517;28;20296;-93
2023/06/12 02:05:01;;;;;;;;;;;;;;;28.08;28.74;98467.22;5071626;28;19955;-92
2023/06/12 02:07:27;;;;;;;;;;;;;;;28.21;28.39;98470.84;5073010;28;19920;-93
2023/06/12 02:09:53;;;;;;;;;;;;;;;27.98;28.91;98469.09;5070286;28;19921;-93
2023/06/12 02:12:19;;;;;;;;;;;;;;;28.04;28.63;98469.38;5070281;28;19974;-92
2023/06/12 02:14:47;;;;;;;;;;;;;;;28.15;28.25;98467.00;5067330;28;19924;-93
2023/06/12 02:17:13;;;;;;;;;;;;;;;28.33;28.29;98460.78;5071558;28;19947;-94
2023/06/12 02:19:39;;;;;;;;;;;;;;;28.23;28.13;98474.00;5072865;28;19920;-93
2023/06/12 02:22:06;;;;;;;;;;;;;;;28.25;27.94;98467.88;5064594;28;19925;-93
2023/06/12 02:24:32;;;;;;;;;;;;;;;28.23;28.10;98465.53;5070751;28;19959;-94
2023/06/12 02:26:58;;;;;;;;;;;;;;;28.08;28.43;98469.28;5069666;28;19990;-93
2023/06/12 02:29:24;;;;;;;;;;;;;;;28.12;28.19;98476.38;5070490;28;19920;-93
2023/06/12 02:31:50;;;;;;;;;;;;;;;28.23;27.45;98478.84;5054805;28;20334;-93
2023/06/12 02:34:16;;;;;;;;;;;;;;;27.95;27.84;98467.19;5071207;28;20018;-93
2023/06/12 02:36:42;;;;;;;;;;;;;;;28.11;27.51;98471.97;5071930;28;20392;-93
2023/06/12 02:39:12;;;;;;;;;;;;;;;27.89;27.55;98476.69;5066505;28;19921;-94
2023/06/12 02:41:42;;;;;;;;;;;;;;;27.97;27.95;98481.66;5064508;28;19921;-93
2023/06/12 02:44:08;;;;;;;;;;;;;;;27.76;28.12;98478.69;5063615;28;19920;-93
2023/06/12 02:46:48;;;;;;;;;;;;;;;27.65;28.25;98476.22;5061807;28;19921;-92
2023/06/12 02:49:14;;;;;;;;;;;;;;;27.55;28.54;98480.13;5069890;28;19921;-93
2023/06/12 02:51:40;;;;;;;;;;;;;;;27.42;28.98;98477.25;5064611;28;19920;-93
2023/06/12 02:54:06;;;;;;;;;;;;;;;27.15;29.32;98485.28;5073240;28;19927;-93
2023/06/12 02:56:35;;;;;;;;;;;;;;;27.23;29.35;98486.69;5068166;28;20392;-92
2023/06/12 02:59:02;;;;;;;;;;;;;;;27.25;29.09;98487.00;5058202;28;19921;-94
2023/06/12 03:01:29;;;;;;;;;;;;;;;27.23;28.76;98489.50;5070453;28;20311;-93
2023/06/12 03:03:56;;;;;;;;;;;;;;;27.21;29.33;98491.94;5063387;28;19920;-94
2023/06/12 03:06:26;;;;;;;;;;;;;;;27.34;28.92;98492.78;5062629;28;19928;-93
2023/06/12 03:08:52;;;;;;;;;;;;;;;27.44;28.61;98492.97;5054097;28;19971;-94
2023/06/12 03:11:19;;;;;;;;;;;;;;;27.39;29.03;98500.75;5071432;28;19921;-93
2023/06/12 03:13:45;;;;;;;;;;;;;;;27.55;29.15;98497.06;5063279;28;19920;-93
2023/06/12 03:16:11;;;;;;;;;;;;;;;27.64;28.88;98500.00;5073992;28;19916;-94
2023/06/12 03:18:37;;;;;;;;;;;;;;;27.86;29.02;98505.81;5070733;28;19920;-93
2023/06/12 03:21:03;;;;;;;;;;;;;;;28.02;28.36;98506.53;5072448;28;19921;-93
2023/06/12 03:23:29;;;;;;;;;;;;;;;28.26;27.62;98500.53;5072894;28;19931;-93
2023/06/12 03:25:55;;;;;;;;;;;;;;;28.39;27.90;98515.44;5072134;28;19925;-94
2023/06/12 03:28:21;;;;;;;;;;;;;;;28.44;27.86;98506.41;5071891;28;19932;-93
2023/06/12 03:30:47;;;;;;;;;;;;;;;28.42;28.44;98509.69;5066689;28;20011;-93
2023/06/12 03:33:14;;;;;;;;;;;;;;;28.38;28.61;98514.63;5072369;28;19968;-93
2023/06/12 03:35:40;;;;;;;;;;;;;;;28.58;28.52;98514.41;5073426;28;20296;-94
2023/06/12 03:38:06;;;;;;;;;;;;;;;28.93;28.31;98504.75;5069364;28;20061;-93
2023/06/12 03:40:33;;;;;;;;;;;;;;;29.15;28.50;98505.56;5070712;28;19921;-94
2023/06/12 03:42:59;;;;;;;;;;;;;;;29.10;28.66;98513.84;5070930;28;20003;-93
2023/06/12 03:45:25;;;;;;;;;;;;;;;29.34;28.65;98509.34;5072941;28;19954;-93
2023/06/12 03:47:51;;;;;;;;;;;;;;;29.32;28.69;98511.84;5070368;28;20391;-92
2023/06/12 03:50:19;;;;;;;;;;;;;;;29.33;28.87;98502.94;5074027;28;19928;-93
2023/06/12 03:52:45;;;;;;;;;;;;;;;29.93;28.35;98505.53;5057835;28;19931;-93
2023/06/12 03:55:12;;;;;;;;;;;;;;;29.92;27.86;98496.22;5076346;28;20326;-93
2023/06/12 03:57:38;;;;;;;;;;;;;;;29.88;27.95;98489.13;5070890;28;19927;-94
2023/06/12 04:00:05;;;;;;;;;;;;;;;30.47;27.20;98500.13;5069441;28;19924;-93
2023/06/12 04:02:31;;;;;;;;;;;;;;;30.67;27.22;98499.69;5075526;28;19924;-95
2023/06/12 04:04:57;;;;;;;;;;;;;;;30.82;27.41;98492.16;5073455;28;19956;-95
2023/06/12 04:07:23;;;;;;;;;;;;;;;31.07;26.42;98488.25;5070331;28;19916;-94
2023/06/12 04:09:49;;;;;;;;;;;;;;;31.01;26.43;98490.97;5072675;28;19967;-93
2023/06/12 04:12:15;;;;;;;;;;;;;;;31.29;26.41;98494.59;5055292;28;19920;-93
2023/06/12 04:14:41;;;;;;;;;;;;;;;31.08;26.84;98492.69;5056007;28;19927;-93
2023/06/12 04:17:07;;;;;;;;;;;;;;;31.42;26.32;98503.72;5066381;28;19920;-92
2023/06/12 04:19:34;;;;;;;;;;;;;;;31.33;26.30;98498.84;5075616;28;20411;-94
2023/06/12 04:22:03;;;;;;;;;;;;;;;30.79;26.86;98501.59;5071025;28;19940;-89
2023/06/12 04:24:30;;;;;;;;;;;;;;;30.24;27.12;98517.63;5066498;28;20024;-90
2023/06/12 04:27:00;;;;;;;;;;;;;;;30.14;27.19;98513.19;5068550;28;19916;-90
2023/06/12 04:29:32;;;;;;;;;;;;;;;29.65;27.06;98509.41;5064758;28;19921;-91
2023/06/12 04:31:59;;;;;;;;;;;;;;;29.50;28.13;98520.47;5069804;28;19931;-90
2023/06/12 04:34:25;;;;;;;;;;;;;;;29.48;28.33;98510.88;5072280;28;20284;-90
2023/06/12 04:36:52;;;;;;;;;;;;;;;28.87;28.25;98511.44;5072794;28;20011;-91
2023/06/12 04:39:19;;;;;;;;;;;;;;;29.02;28.44;98513.31;5056383;28;19917;-91
2023/06/12 04:41:47;;;;;;;;;;;;;;;29.38;27.98;98516.47;5067346;28;19952;-92
2023/06/12 04:44:14;;;;;;;;;;;;;;;28.68;28.43;98519.72;5065907;28;19924;-91
2023/06/12 04:46:40;;;;;;;;;;;;;;;29.18;29.07;98512.38;5071217;28;19955;-92
2023/06/12 04:49:06;;;;;;;;;;;;;;;29.18;28.90;98515.19;5067730;28;19923;-93
2023/06/12 04:51:32;;;;;;;;;;;;;;;29.33;28.44;98519.91;5070544;28;20296;-92
2023/06/12 04:54:01;;;;;;;;;;;;;;;27.69;31.82;98518.41;5071607;28;19928;-94
2023/06/12 04:56:27;;;;;;;;;;;;;;;28.50;29.32;98527.16;5074882;28;20011;-93
2023/06/12 04:58:53;;;;;;;;;;;;;;;28.41;29.23;98521.41;5071012;28;19916;-95
2023/06/12 05:01:21;;;;;;;;;;;;;;;28.92;28.10;98533.44;5063708;28;19939;-93
2023/06/12 05:03:49;;;;;;;;;;;;;;;28.55;28.58;98523.78;5072084;28;19920;-92
2023/06/12 05:06:15;;;;;;;;;;;;;;;29.28;27.58;98519.69;5071135;28;19975;-92
2023/06/12 05:08:42;;;;;;;;;;;;;;;28.07;30.07;98522.13;5068309;28;19927;-90
2023/06/12 05:11:08;;;;;;;;;;;;;;;28.44;29.81;98529.78;5063029;28;19931;-88
2023/06/12 05:13:34;;;;;;;;;;;;;;;27.64;30.37;98531.03;5066125;28;19920;-89
2023/06/12 05:16:00;;;;;;;;;;;;;;;28.23;28.09;98518.38;5063031;28;20391;-86
2023/06/12 05:18:26;;;;;;;;;;;;;;;28.20;28.96;98525.72;5065385;28;19963;-88
2023/06/12 05:20:52;;;;;;;;;;;;;;;27.58;30.26;98521.56;5068691;28;19963;-86
2023/06/12 05:23:18;;;;;;;;;;;;;;;26.90;29.71;98519.00;5073258;28;20023;-91
2023/06/12 05:25:44;;;;;;;;;;;;;;;27.65;29.05;98524.16;5069387;28;20046;-92
2023/06/12 05:28:11;;;;;;;;;;;;;;;27.95;27.62;98532.13;5064915;28;19920;-90
2023/06/12 05:30:37;;;;;;;;;;;;;;;27.95;28.03;98536.97;5037085;28;19963;-90
2023/06/12 05:33:03;;;;;;;;;;;;;;;28.40;28.00;98526.28;5052669;28;19952;-90
2023/06/12 05:35:31;;;;;;;;;;;;;;;28.17;27.87;98537.16;5039139;28;20008;-90
2023/06/12 05:37:57;;;;;;;;;;;;;;;28.97;27.57;98528.03;5064644;28;19924;-90
2023/06/12 05:40:23;;;;;;;;;;;;;;;29.63;26.86;98535.34;5073608;28;19916;-90
2023/06/12 05:42:50;;;;;;;;;;;;;;;29.29;25.54;98530.53;5074762;28;20307;-90
2023/06/12 05:45:16;;;;;;;;;;;;;;;29.37;25.44;98534.69;5075140;28;19927;-90
2023/06/12 05:47:42;;;;;;;;;;;;;;;29.19;25.04;98536.59;5056294;28;19912;-90
2023/06/12 05:50:08;;;;;;;;;;;;;;;27.45;28.58;98540.44;5074962;28;19920;-91
2023/06/12 05:52:35;;;;;;;;;;;;;;;26.79;30.48;98543.03;5057073;28;19923;-90
2023/06/12 05:55:02;;;;;;;;;;;;;;;28.21;28.36;98544.25;5056818;28;20380;-91
2023/06/12 05:57:28;;;;;;;;;;;;;;;28.42;27.71;98551.25;5074604;28;19924;-88
2023/06/12 05:59:54;;;;;;;;;;;;;;;28.51;26.05;98552.16;5056979;28;20360;-91
2023/06/12 06:02:20;;;;;;;;;;;;;;;28.98;25.77;98545.78;5074729;28;20410;-89
2023/06/12 06:04:46;;;;;;;;;;;;;;;29.43;25.79;98547.00;5074344;28;19921;-92
2023/06/12 06:07:12;;;;;;;;;;;;;;;29.75;26.67;98545.81;5074679;28;20395;-91
2023/06/12 06:09:38;;;;;;;;;;;;;;;28.50;26.90;98546.94;5074922;28;19916;-89
2023/06/12 06:12:05;;;;;;;;;;;;;;;28.86;26.03;98546.59;5074057;28;19924;-89
2023/06/12 06:14:31;;;;;;;;;;;;;;;28.78;26.05;98548.88;5073969;28;20385;-91
2023/06/12 06:16:57;;;;;;;;;;;;;;;29.26;25.65;98544.81;5074567;28;19970;-90
2023/06/12 06:19:23;;;;;;;;;;;;;;;27.42;27.10;98539.31;5074471;28;20027;-90
2023/06/12 06:21:49;;;;;;;;;;;;;;;26.28;27.58;98555.94;5056520;28;19921;-89
2023/06/12 06:24:15;;;;;;;;;;;;;;;26.27;27.48;98554.34;5055146;28;19921;-91
2023/06/12 06:26:41;;;;;;;;;;;;;;;28.29;26.02;98556.09;5054106;28;20369;-90
2023/06/12 06:29:07;;;;;;;;;;;;;;;28.08;26.36;98554.72;5054309;28;19959;-90
2023/06/12 06:31:33;;;;;;;;;;;;;;;28.12;26.41;98549.78;5054234;28;19989;-90
2023/06/12 06:33:59;;;;;;;;;;;;;;;26.85;26.64;98553.34;5054371;28;19917;-91
2023/06/12 06:36:25;;;;;;;;;;;;;;;26.71;26.91;98554.47;5054297;28;19921;-89
2023/06/12 06:38:51;;;;;;;;;;;;;;;25.52;28.80;98551.53;5073158;28;20330;-89
2023/06/12 06:41:18;;;;;;;;;;;;;;;25.62;28.16;98554.16;5073938;28;20014;-89
2023/06/12 06:43:44;;;;;;;;;;;;;;;26.48;27.32;98557.47;5074153;28;19920;-89
2023/06/12 06:46:10;;;;;;;;;;;;;;;25.92;27.68;98551.09;5073914;28;19999;-90
2023/06/12 06:48:36;;;;;;;;;;;;;;;25.23;29.21;98565.31;5074188;28;19970;-88
2023/06/12 06:51:02;;;;;;;;;;;;;;;25.93;27.64;98558.28;5073960;28;20394;-90
2023/06/12 06:53:28;;;;;;;;;;;;;;;26.28;28.02;98556.72;5074222;28;19927;-88
2023/06/12 06:55:54;;;;;;;;;;;;;;;26.48;27.53;98562.28;5054584;28;19921;-89
2023/06/12 06:58:20;;;;;;;;;;;;;;;26.76;27.08;98553.16;5053858;28;20311;-90
2023/06/12 07:00:46;;;;;;;;;;;;;;;27.73;25.75;98556.56;5053714;28;20016;-89
2023/06/12 07:03:13;;;;;;;;;;;;;;;27.58;27.38;98552.59;5053784;28;20395;-90
2023/06/12 07:05:39;;;;;;;;;;;;;;;27.36;25.96;98558.00;5053951;28;20273;-89
2023/06/12 07:08:05;;;;;;;;;;;;;;;27.49;26.83;98563.72;5053731;28;19912;-89
2023/06/12 07:10:31;;;;;;;;;;;;;;;28.28;25.96;98552.50;5053442;28;19959;-91
2023/06/12 07:12:57;;;;;;;;;;;;;;;26.97;27.41;98560.28;5045755;28;19991;-89
2023/06/12 07:15:25;;;;;;;;;;;;;;;26.02;28.16;98546.44;5069717;28;19935;-91
2023/06/12 07:17:51;;;;;;;;;;;;;;;25.40;29.43;98561.38;5073663;28;20372;-91
2023/06/12 07:20:17;;;;;;;;;;;;;;;25.19;29.02;98559.78;5073534;28;19930;-89
2023/06/12 07:22:43;;;;;;;;;;;;;;;25.53;29.78;98558.75;5073515;28;20015;-89
2023/06/12 07:25:10;;;;;;;;;;;;;;;24.70;29.59;98550.19;5074068;28;19917;-89
2023/06/12 07:27:36;;;;;;;;;;;;;;;24.98;29.27;98554.53;5073783;28;19927;-91
2023/06/12 07:30:02;;;;;;;;;;;;;;;23.39;31.00;98558.84;5053981;28;19917;-87
2023/06/12 07:32:28;;;;;;;;;;;;;;;24.78;29.25;98555.72;5053868;28;19929;-89
2023/06/12 07:34:55;;;;;;;;;;;;;;;24.87;28.75;98550.34;5053469;28;19940;-89
2023/06/12 07:37:22;;;;;;;;;;;;;;;26.04;28.05;98552.44;5053094;28;19921;-91
2023/06/12 07:39:48;;;;;;;;;;;;;;;26.27;26.92;98569.22;5055456;28;19974;-91
2023/06/12 07:42:14;;;;;;;;;;;;;;;25.44;27.27;98562.13;5073451;28;19916;-90
2023/06/12 07:44:40;;;;;;;;;;;;;;;25.54;28.48;98569.56;5072863;28;19987;-89
2023/06/12 07:47:07;;;;;;;;;;;;;;;25.10;28.36;98567.97;5053458;28;20004;-89
2023/06/12 07:49:33;;;;;;;;;;;;;;;26.30;28.25;98561.94;5053348;28;19960;-90
2023/06/12 07:51:59;;;;;;;;;;;;;;;25.75;27.03;98557.88;5053432;28;20369;-89
2023/06/12 07:54:25;;;;;;;;;;;;;;;24.89;28.28;98559.94;5073414;28;19917;-91
2023/06/12 07:56:51;;;;;;;;;;;;;;;24.55;28.06;98564.91;5073182;28;20288;-89
2023/06/12 07:59:17;;;;;;;;;;;;;;;24.98;28.58;98567.78;5073425;28;19981;-89
2023/06/12 08:01:44;;;;;;;;;;;;;;;26.02;26.99;98566.16;5072172;28;19920;-90
2023/06/12 08:04:10;;;;;;;;;;;;;;;26.65;25.87;98563.88;5053331;28;19944;-90
2023/06/12 08:06:41;;;;;;;;;;;;;;;26.02;25.79;98566.91;5052732;28;19921;-90
2023/06/12 08:09:09;;;;;;;;;;;;;;;26.16;26.94;98581.94;5053300;28;19917;-89
2023/06/12 08:11:35;;;;;;;;;;;;;;;27.83;25.75;98577.25;5062579;28;19920;-91
2023/06/12 08:14:02;;;;;;;;;;;;;;;27.66;24.30;98565.22;5073004;28;20007;-89
2023/06/12 08:16:28;;;;;;;;;;;;;;;26.97;25.94;98563.91;5055110;28;19963;-91
2023/06/12 08:18:55;;;;;;;;;;;;;;;27.69;25.15;98558.72;5070943;28;19966;-89
2023/06/12 08:21:21;;;;;;;;;;;;;;;28.12;24.27;98563.13;5052854;28;19916;-90
2023/06/12 08:23:47;;;;;;;;;;;;;;;27.18;25.12;98559.72;5053161;28;19924;-89
2023/06/12 08:26:14;;;;;;;;;;;;;;;27.38;25.90;98557.56;5053262;28;19916;-91
2023/06/12 08:28:40;;;;;;;;;;;;;;;26.41;26.77;98557.63;5053236;28;19921;-90
2023/06/12 08:31:06;;;;;;;;;;;;;;;28.19;25.33;98560.88;5052851;28;19921;-88
2023/06/12 08:33:32;;;;;;;;;;;;;;;27.22;25.36;98560.41;5055387;28;19921;-88
2023/06/12 08:35:59;;;;;;;;;;;;;;;26.39;26.30;98562.91;5057385;28;20303;-88
2023/06/12 08:38:25;;;;;;;;;;;;;;;26.77;25.89;98565.25;5056270;28;20343;-90
2023/06/12 08:40:56;;;;;;;;;;;;;;;27.41;25.69;98551.06;5058626;28;19928;-89
2023/06/12 08:43:22;;;;;;;;;;;;;;;26.14;25.64;98550.63;5076622;28;19917;-89
2023/06/12 08:45:51;;;;;;;;;;;;;;;25.84;26.37;98555.25;5076230;28;19916;-89
2023/06/12 08:48:17;;;;;;;;;;;;;;;25.62;26.07;98556.16;5076301;28;19978;-89
2023/06/12 08:50:44;;;;;;;;;;;;;;;26.04;25.28;98550.38;5076170;28;20375;-89
2023/06/12 08:53:11;;;;;;;;;;;;;;;25.49;26.31;98544.75;5075287;28;19923;-89
2023/06/12 08:55:39;;;;;;;;;;;;;;;25.75;25.23;98546.63;5076022;28;20425;-89
2023/06/12 08:58:07;;;;;;;;;;;;;;;27.18;24.87;98540.78;5075911;28;19920;-89
2023/06/12 09:00:33;;;;;;;;;;;;;;;27.82;23.92;98547.47;5076057;28;20023;-88
2023/06/12 09:03:00;;;;;;;;;;;;;;;27.39;24.63;98551.50;5058118;28;19917;-89
2023/06/12 09:05:29;;;;;;;;;;;;;;;26.01;24.98;98550.47;5076229;28;19916;-89
2023/06/12 09:07:57;;;;;;;;;;;;;;;26.41;25.20;98549.19;5075895;28;19924;-89
2023/06/12 09:10:23;;;;;;;;;;;;;;;27.25;25.21;98546.22;5075125;28;19916;-89
2023/06/12 09:12:58;;;;;;;;;;;;;;;28.34;23.04;98552.72;5075942;28;20003;-89
2023/06/12 09:15:24;;;;;;;;;;;;;;;27.28;23.32;98550.19;5075961;28;20315;-89
2023/06/12 09:17:55;;;;;;;;;;;;;;;27.11;23.55;98545.81;5075753;28;19955;-90
2023/06/12 09:20:27;;;;;;;;;;;;;;;25.95;25.33;98550.19;5075720;28;19964;-90
2023/06/12 09:22:53;;;;;;;;;;;;;;;26.16;24.53;98560.22;5075564;28;20469;-90
2023/06/12 09:25:20;;;;;;;;;;;;;;;27.02;23.84;98549.28;5075657;28;19916;-89
2023/06/12 09:27:47;;;;;;;;;;;;;;;27.35;24.20;98552.81;5074854;28;19920;-88
2023/06/12 09:30:13;;;;;;;;;;;;;;;27.04;24.60;98551.63;5075534;28;19985;-87
2023/06/12 09:32:45;;;;;;;;;;;;;;;26.95;24.48;98548.66;5075441;28;19923;-88
2023/06/12 09:35:12;;;;;;;;;;;;;;;26.02;25.76;98546.44;5075237;28;20013;-88
2023/06/12 09:37:41;;;;;;;;;;;;;;;25.83;24.71;98548.06;5075275;28;19917;-86
2023/06/12 09:40:14;;;;;;;;;;;;;;;25.87;24.86;98542.34;5075485;28;19917;-87
2023/06/12 09:42:41;;;;;;;;;;;;;;;25.02;25.70;98551.69;5075235;28;19924;-88
2023/06/12 09:45:14;;;;;;;;;;;;;;;26.44;24.76;98555.97;5066583;28;22382;-88
2023/06/12 09:47:45;;;;;;;;;;;;;;;26.24;25.09;98544.75;5067913;28;20376;-87
2023/06/12 09:50:12;;;;;;;;;;;;;;;25.46;25.49;98533.59;5055082;28;19916;-88
2023/06/12 09:52:48;;;;;;;;;;;;;;;24.91;25.70;98551.88;5071284;28;20399;-88
2023/06/12 09:55:15;;;;;;;;;;;;;;;25.52;26.25;98543.09;5074954;28;19932;-89
2023/06/12 09:57:48;;;;;;;;;;;;;;;25.58;25.32;98544.19;5074732;28;20005;-88
2023/06/12 10:00:16;;;;;;;;;;;;;;;26.25;24.24;98535.09;5074598;28;20453;-88
2023/06/12 10:02:50;;;;;;;;;;;;;;;26.91;24.77;98542.34;5040257;28;19921;-88
2023/06/12 10:05:23;;;;;;;;;;;;;;;27.07;24.18;98542.31;5074737;28;19936;-88
2023/06/12 10:07:52;;;;;;;;;;;;;;;26.54;24.81;98538.00;5074834;28;20385;-88
2023/06/12 10:10:19;;;;;;;;;;;;;;;26.32;22.96;98540.56;5074756;28;19970;-90
2023/06/12 10:12:45;;;;;;;;;;;;;;;25.89;24.78;98528.63;5074896;28;19917;-88
2023/06/12 10:15:11;;;;;;;;;;;;;;;27.09;23.10;98518.09;5074762;28;19917;-89
2023/06/12 10:17:38;;;;;;;;;;;;;;;27.45;23.56;98525.56;5055880;28;19916;-89
2023/06/12 10:20:06;;;;;;;;;;;;;;;28.42;22.87;98506.84;5054478;28;20269;-88
2023/06/12 10:22:32;;;;;;;;;;;;;;;27.06;23.04;98518.16;5054589;28;19944;-86
2023/06/12 10:25:00;;;;;;;;;;;;;;;27.57;22.13;98507.88;5054696;28;19959;-89
2023/06/12 10:27:27;;;;;;;;;;;;;;;28.11;23.58;98524.81;5054922;28;19912;-88
2023/06/12 10:29:56;;;;;;;;;;;;;;;27.29;23.92;98517.91;5073841;28;19965;-86
2023/06/12 10:32:22;;;;;;;;;;;;;;;28.80;22.08;98520.16;5074206;28;20014;-87
2023/06/12 10:34:52;;;;;;;;;;;;;;;28.18;21.71;98508.44;5063552;28;19917;-87
2023/06/12 10:37:25;;;;;;;;;;;;;;;29.26;22.57;98497.53;5073902;28;19920;-88
2023/06/12 10:40:07;;;;;;;;;;;;;;;28.32;20.62;98510.00;5073986;28;19954;-89
2023/06/12 10:42:40;;;;;;;;;;;;;;;28.94;21.16;98497.06;5073772;28;19923;-86
2023/06/12 10:45:36;;;;;;;;;;;;;;;29.14;20.70;98503.19;5073833;28;19916;-86
2023/06/12 10:48:02;;;;;;;;;;;;;;;27.70;22.23;98509.47;5042643;28;20011;-88
2023/06/12 10:50:29;;;;;;;;;;;;;;;27.01;22.81;98505.41;5073672;28;19927;-89
2023/06/12 10:52:55;;;;;;;;;;;;;;;27.74;21.38;98498.91;5071812;28;19923;-88
2023/06/12 10:55:22;;;;;;;;;;;;;;;28.03;21.42;98499.63;5051596;28;19991;-88
2023/06/12 10:57:53;;;;;;;;;;;;;;;28.90;21.09;98493.53;5053811;28;19917;-90
2023/06/12 11:00:20;;;;;;;;;;;;;;;30.37;19.92;98481.50;5053725;28;19927;-88
2023/06/12 11:02:53;;;;;;;;;;;;;;;29.29;19.14;98488.09;5054129;28;19924;-90
2023/06/12 11:05:19;;;;;;;;;;;;;;;29.66;20.18;98482.69;5053523;28;19924;-89
2023/06/12 11:07:46;;;;;;;;;;;;;;;29.40;21.16;98470.75;5053604;28;20019;-87
2023/06/12 11:10:12;;;;;;;;;;;;;;;29.34;21.59;98473.38;5045794;28;20026;-90
2023/06/12 11:12:45;;;;;;;;;;;;;;;29.61;20.20;98474.81;5053721;28;20012;-91
2023/06/12 11:15:12;;;;;;;;;;;;;;;29.07;20.07;98470.31;5053689;28;19923;-90
2023/06/12 11:17:38;;;;;;;;;;;;;;;27.46;22.34;98477.19;5053712;28;20019;-91
2023/06/12 11:20:07;;;;;;;;;;;;;;;27.16;22.82;98463.53;5053534;28;19924;-89
2023/06/12 11:22:33;;;;;;;;;;;;;;;26.82;23.22;98458.41;5052308;28;20376;-89
2023/06/12 11:25:00;;;;;;;;;;;;;;;27.91;22.78;98455.22;5046909;28;19963;-89
2023/06/12 11:27:26;;;;;;;;;;;;;;;28.47;22.33;98457.47;5049721;28;19974;-89
2023/06/12 11:29:52;;;;;;;;;;;;;;;28.50;20.49;98451.69;5052911;28;19928;-85
2023/06/12 11:32:19;;;;;;;;;;;;;;;27.08;22.43;98460.09;5050527;28;19921;-88
2023/06/12 11:34:46;;;;;;;;;;;;;;;27.02;23.70;98459.09;5051591;28;19987;-91
2023/06/12 11:37:16;;;;;;;;;;;;;;;26.96;23.76;98449.56;5052957;28;20300;-89
2023/06/12 11:39:42;;;;;;;;;;;;;;;25.93;23.58;98442.91;5053492;28;20008;-94
2023/06/12 11:42:10;;;;;;;;;;;;;;;27.62;22.38;98448.09;5053120;28;19947;-91
2023/06/12 11:44:36;;;;;;;;;;;;;;;26.61;22.61;98440.03;5037730;28;20032;-93
2023/06/12 11:47:02;;;;;;;;;;;;;;;26.23;23.91;98441.84;5034019;28;19943;-90
2023/06/12 11:49:31;;;;;;;;;;;;;;;28.11;22.18;98440.13;5037250;28;19929;-89
2023/06/12 11:51:57;;;;;;;;;;;;;;;28.84;20.89;98427.53;5046836;28;20365;-92
2023/06/12 11:54:23;;;;;;;;;;;;;;;30.28;20.78;98429.66;5053807;28;19924;-91
2023/06/12 11:56:50;;;;;;;;;;;;;;;29.93;20.50;98431.91;5073020;28;19947;-89
2023/06/12 11:59:16;;;;;;;;;;;;;;;29.02;21.72;98434.13;5071492;28;20391;-90
2023/06/12 12:01:45;;;;;;;;;;;;;;;27.70;22.03;98441.75;5056146;28;20012;-90
2023/06/12 12:04:11;;;;;;;;;;;;;;;26.96;22.78;98443.94;5063463;28;19962;-88
2023/06/12 12:06:47;;;;;;;;;;;;;;;27.99;22.40;98438.88;5073904;28;19921;-89
2023/06/12 12:09:13;;;;;;;;;;;;;;;28.26;22.67;98429.94;5076977;28;19917;-91
2023/06/12 12:11:40;;;;;;;;;;;;;;;29.68;20.74;98427.22;5076661;28;19969;-89
2023/06/12 12:14:06;;;;;;;;;;;;;;;27.90;22.50;98442.34;5076489;28;20281;-89
2023/06/12 12:16:37;;;;;;;;;;;;;;;27.89;22.64;98437.94;5072912;28;19928;-90
2023/06/12 12:19:26;;;;;;;;;;;;;;;28.01;22.31;98428.72;5076126;28;19935;-87
2023/06/12 12:21:52;;;;;;;;;;;;;;;29.72;21.72;98416.53;5076428;28;19923;-87
2023/06/12 12:24:18;;;;;;;;;;;;;;;28.14;23.02;98428.72;5076210;28;19965;-87
2023/06/12 12:26:51;;;;;;;;;;;;;;;28.69;21.41;98421.59;5076534;28;19916;-87
2023/06/12 12:29:17;;;;;;;;;;;;;;;27.69;22.10;98433.75;5076085;28;19920;-86
2023/06/12 12:31:43;;;;;;;;;;;;;;;26.86;22.42;98436.59;5076045;28;19924;-89
2023/06/12 12:34:09;;;;;;;;;;;;;;;27.20;22.35;98434.00;5071776;28;19927;-91
2023/06/12 12:36:36;;;;;;;;;;;;;;;27.93;21.77;98433.00;5068464;28;20189;-90
2023/06/12 12:39:03;;;;;;;;;;;;;;;28.25;21.40;98403.72;5074778;28;19916;-91
2023/06/12 12:41:29;;;;;;;;;;;;;;;28.69;21.37;98416.75;5073904;28;19931;-90
2023/06/12 12:43:55;;;;;;;;;;;;;;;28.32;22.39;98411.97;5074828;28;19920;-90
2023/06/12 12:46:22;;;;;;;;;;;;;;;28.74;22.98;98416.16;5076509;28;19916;-89
2023/06/12 12:48:49;;;;;;;;;;;;;;;28.84;21.91;98410.59;5076657;28;19912;-89